Nearby METAR Reports

 

KORH - Worcester, Massachusetts, USA
Distance from station: NW 4mi, 7km
Updated: Tue, 18-Jun-2019 10:54am EDT
Partly cloudy
Partly cloudy
 Wind from varies
Wind: varies 3 mph , 6 km/h
Temperature: 64°F , 18°C
Dew Point: 57°F , 14°C
Humidity: 78%
Barometer: 29.99 inHg , 1015.6 hPa
Clouds: Partly cloudy
Visibility: 10 miles , 16 km
Cloud details: Few Clouds 3600 ft
Partly cloudy 7000 ft
2019/06/18 14:54 KORH 181454Z VRB03KT 10SM FEW036 SCT070 18/14 A2999 RMK AO2 SLP153 T01830144 58002
KBOS - Boston, Massachusetts, USA
Distance from station: ENE 42mi, 68km
Updated: Tue, 18-Jun-2019 11:07am EDT
Overcast
Overcast
 Wind from E
Wind: E 6 mph , 9 km/h
Temperature: 70°F , 21°C
Dew Point: 63°F , 17°C
Humidity: 78%
Barometer: 29.97 inHg , 1014.9 hPa
Clouds: Overcast
Visibility: 10 miles , 16 km
Cloud details: Partly cloudy 1700 ft
Partly cloudy 5500 ft
Overcast 16000 ft
2019/06/18 15:07 KBOS 181507Z 09005KT 10SM SCT017 SCT055 OVC160 21/17 A2997 RMK AO2 T02110167
 
KCQX - Chatham, Massachusetts, USA
Distance from station: SE 102mi, 164km
Updated: Tue, 18-Jun-2019 10:52am EDT
Overcast
Overcast
 Wind from SW
Wind: SW 5 mph , 7 km/h
Temperature: 66°F , 19°C
Dew Point: 63°F , 17°C
Humidity: 88%
Barometer: 30.01 inHg , 1016.3 hPa
Clouds: Overcast
Visibility: 10 miles , 16 km
Cloud details: Overcast 3900 ft
2019/06/18 14:52 KCQX 181452Z AUTO 22004KT 10SM OVC039 19/17 A3001 RMK AO2 SLP163 T01890172 53002
KMVY - Marthas Vineyard, Massachusetts, USA
Distance from station: SE 84mi, 135km
Updated: Tue, 18-Jun-2019 11:21am EDT
Light rain, Mist, Overcast
Light rain, Mist, Overcast
 Wind from SE
Wind: SE 5 mph , 7 km/h
Temperature: 66°F , 19°C
Dew Point: 64°F , 18°C
Humidity: 94%
Barometer: 29.99 inHg , 1015.6 hPa
Summary: Light rain, Mist
Clouds: Overcast
Visibility: 2 miles , 3 km
Cloud details: Overcast 200 ft
2019/06/18 15:21 KMVY 181521Z 14004KT 2SM -RA BR OVC002 19/18 A2999 RMK AO2 SFC VIS 4 P0001 T01890178
 
KPVC - Provincetown, Massachusetts, USA
Distance from station: NNW 85mi, 136km
Updated: Tue, 18-Jun-2019 11:13am EDT
Overcast
Overcast
 Wind from S
Wind: S 8 mph , 13 km/h
Temperature: 66°F , 19°C
Dew Point: 64°F , 18°C
Humidity: 94%
Barometer: 30.00 inHg , 1015.9 hPa
Clouds: Overcast
Visibility: 10 miles , 16 km
Cloud details: Few Clouds 400 ft
Overcast 4400 ft
2019/06/18 15:13 KPVC 181513Z AUTO 19007KT 10SM FEW004 OVC044 19/18 A3000 RMK AO2 PNO $
KAQW - Savoy, Massachusetts, USA
Distance from station: NNW 66mi, 106km
Updated: Tue, 18-Jun-2019 10:52am EDT
Light rain, Overcast
Light rain, Overcast
 Wind from SE
Wind: SE 5 mph , 7 km/h
Temperature: 66°F , 19°C
Dew Point: 57°F , 14°C
Humidity: 73%
Barometer: 29.97 inHg , 1014.9 hPa
Summary: Light rain
Clouds: Overcast
Visibility: 10 miles , 16 km
Cloud details: Few Clouds 7000 ft
Overcast 9000 ft
2019/06/18 14:52 KAQW 181452Z AUTO 13004KT 10SM -RA FEW070 OVC090 19/14 A2997 RMK AO2 RAB43 SLP150 P0000 60000 T01890139 58005
 
KIZG - Fryeburg, Maine, USA
Distance from station: NNE 133mi, 214km
Updated: Tue, 18-Jun-2019 10:54am EDT
Overcast
Overcast
 Wind from calm
Wind: Calm
Temperature: 68°F , 20°C
Dew Point: 52°F , 11°C
Humidity: 56%
Barometer: 30.02 inHg , 1016.6 hPa
Clouds: Overcast
Visibility: 10 miles , 16 km
Cloud details: Mostly cloudy 6500 ft
Overcast 8000 ft
2019/06/18 14:54 KIZG 181454Z AUTO 00000KT 10SM BKN065 OVC080 20/11 A3002 RMK AO2 SLP165 T02000111 55002
KMWN - Mt Washington, New Hampshire, USA
Distance from station: NNE 146mi, 234km
Updated: Tue, 18-Jun-2019 10:51am EDT

 Wind from WSW
Wind: WSW 13 mph , 20 km/h
Visibility: 60 miles , 96 km
2019/06/18 14:51 KMWN 181451Z 24011KT 60SM FEW/// OVC005 07/04 RMK BBLO FEW NE LIMITING VIS TO 4SM
 
KBML - Berlin, New Hampshire, USA
Distance from station: NNE 160mi, 257km
Updated: Tue, 18-Jun-2019 10:52am EDT
Overcast
Overcast
 Wind from calm
Wind: Calm
Temperature: 66°F , 19°C
Dew Point: 46°F , 8°C
Humidity: 49%
Barometer: 30.01 inHg , 1016.3 hPa
Clouds: Overcast
Visibility: 10 miles , 16 km
Cloud details: Mostly cloudy 5000 ft
Overcast 8000 ft
2019/06/18 14:52 KBML 181452Z AUTO 00000KT 10SM BKN050 OVC080 19/08 A3001 RMK AO2 SLP163 T01940083 58008